Onhaye, Belgium
Current Conditions -  °F | °C
As of 12:55 PM on Saturday 25 Oct 2014 (Local Time) from EBFS Reporting Station
Haze Haze  
Wind Chill: 52°   Ceiling: 700
Heat Index: 52°   Visibility: 2.5mi
Dew Point: 52°   Wind: 8mph
Humidity: 100%   Direction: 230°SW
Pressure: 30.12"   Gusts: NA
Location:  50.24°N, 4.84°E
Report Text: EBFS 251055Z 23007KT 4000 BR SCT003 BKN007 11/11 Q1020 YLO
Loading
Personal Weather Stations






























Interactive Weather Map
Tropical Storm Tracking
New forecast layout! Learn more

10-Day Weather Forecast

Advertisements
Track Severe Weather on mobile